Tuxpan, Mexico

8:40 AM CST on February 14, 2016 (GMT -0600)
Tajin | | Change Station
CLOSE
Current Station
Airport
Location: Poza Rica,
Elevation: 495 ft
Nearby Weather Stations

Elev 495 ft 20.60 °N, 97.46 °W | Updated 51 minutes ago

Overcast
Overcast
63 °F
Feels Like 63 °F
N
0
Wind Variable Wind from North

Today
High -- | Low -- °F
--% Chance of Precip.
Yesterday
High -- | Low -- °F
Precip. -- in
Pressure 30.16 in
Visibility 4.0 miles
Clouds Mostly Cloudy 1000 ft
Overcast 2500 ft
Dew Point 63 °F
Humidity 100%
Rainfall 0.00 in
Snow Depth Not available.
7:00 AM 6:27 PM
Waxing Crescent, 42% visible
METAR MMPA 141349Z 00000KT 4SM BKN010 OVC025 17/17 A3016 RMK 8/8// HZY OCNL DROPS
Pressure 30.16 in
Visibility 4.0 miles
Clouds Mostly Cloudy 1000 ft
Overcast 2500 ft
Dew Point 63 °F
Humidity 100%
Rainfall 0.00 in
Snow Depth Not available.
7:00 AM 6:27 PM
Waxing Crescent, 42% visible
METAR MMPA 141349Z 00000KT 4SM BKN010 OVC025 17/17 A3016 RMK 8/8// HZY OCNL DROPS

10-Day Weather Forecast

No radar image for this location.
×

Almanac

Astronomy

Feb. 14, 2016 Rise Set
Actual Time
Civil Twilight
Nautical Twilight
Astronomical Twilight
Moon
Length of Visible Light
Length of Day
Tomorrow will be .
, % of the Moon is Illuminated

Today's Extremes

Country Highs Country Lows

Community

WunderPhotos

Upload Photos

1,892,773 photos uploaded!

WunderBlog® & News

Nearby

Air Quality

  Air Quality AQ Index Pollutant
Not available.

Snow Depth

Station Depth Elevation

Earthquake Activity

City Distance Mag. Time & Date
Minimum magnitude displayed is 2.5.

Coastal Water Temperatures

Place Temperature

Stations

Nearby Weather Stations

Station Location Temp. Windchill Dew Point Humidity Wind Precip. Elev Updated Type